sensor_id;sensor_type;location;lat;lon;timestamp;P1;durP1;ratioP1;P2;durP2;ratioP2
1467;SDS011;727;48.892;9.544;2022-10-31T00:01:13;5.90;;;4.80;;
1467;SDS011;727;48.892;9.544;2022-10-31T00:03:41;11.60;;;4.90;;
1467;SDS011;727;48.892;9.544;2022-10-31T00:06:08;5.03;;;4.35;;
1467;SDS011;727;48.892;9.544;2022-10-31T00:08:35;7.57;;;5.70;;
1467;SDS011;727;48.892;9.544;2022-10-31T00:11:02;8.90;;;4.82;;
1467;SDS011;727;48.892;9.544;2022-10-31T00:13:29;8.07;;;4.93;;
1467;SDS011;727;48.892;9.544;2022-10-31T00:15:55;7.57;;;4.55;;
1467;SDS011;727;48.892;9.544;2022-10-31T00:18:23;7.18;;;5.05;;
1467;SDS011;727;48.892;9.544;2022-10-31T00:20:57;11.07;;;6.03;;
1467;SDS011;727;48.892;9.544;2022-10-31T00:23:25;12.23;;;5.15;;
1467;SDS011;727;48.892;9.544;2022-10-31T00:25:51;7.78;;;5.18;;
1467;SDS011;727;48.892;9.544;2022-10-31T00:28:18;5.65;;;5.07;;
1467;SDS011;727;48.892;9.544;2022-10-31T00:30:45;7.45;;;4.90;;
1467;SDS011;727;48.892;9.544;2022-10-31T00:33:11;8.48;;;4.78;;
1467;SDS011;727;48.892;9.544;2022-10-31T00:35:39;9.65;;;5.30;;
1467;SDS011;727;48.892;9.544;2022-10-31T00:38:06;10.48;;;5.53;;
1467;SDS011;727;48.892;9.544;2022-10-31T00:40:33;7.85;;;5.03;;
1467;SDS011;727;48.892;9.544;2022-10-31T00:42:59;6.20;;;5.10;;
1467;SDS011;727;48.892;9.544;2022-10-31T00:45:26;7.05;;;4.82;;
1467;SDS011;727;48.892;9.544;2022-10-31T00:47:53;5.65;;;4.63;;
1467;SDS011;727;48.892;9.544;2022-10-31T00:50:19;5.35;;;4.82;;
1467;SDS011;727;48.892;9.544;2022-10-31T00:52:47;5.47;;;4.60;;
1467;SDS011;727;48.892;9.544;2022-10-31T00:55:14;7.93;;;5.50;;
1467;SDS011;727;48.892;9.544;2022-10-31T00:57:41;5.78;;;5.20;;
1467;SDS011;727;48.892;9.544;2022-10-31T01:00:08;5.85;;;5.25;;
1467;SDS011;727;48.892;9.544;2022-10-31T01:02:37;10.73;;;4.95;;
1467;SDS011;727;48.892;9.544;2022-10-31T01:05:03;6.15;;;5.10;;
1467;SDS011;727;48.892;9.544;2022-10-31T01:07:30;10.10;;;5.63;;
1467;SDS011;727;48.892;9.544;2022-10-31T01:09:59;7.75;;;4.78;;
1467;SDS011;727;48.892;9.544;2022-10-31T01:12:25;13.43;;;5.05;;
1467;SDS011;727;48.892;9.544;2022-10-31T01:14:52;8.88;;;5.60;;
1467;SDS011;727;48.892;9.544;2022-10-31T01:17:19;7.60;;;6.18;;
1467;SDS011;727;48.892;9.544;2022-10-31T01:19:45;9.35;;;5.53;;
1467;SDS011;727;48.892;9.544;2022-10-31T01:22:12;8.10;;;4.93;;
1467;SDS011;727;48.892;9.544;2022-10-31T01:24:39;8.70;;;5.22;;
1467;SDS011;727;48.892;9.544;2022-10-31T01:27:07;7.97;;;5.03;;
1467;SDS011;727;48.892;9.544;2022-10-31T01:29:33;11.20;;;5.22;;
1467;SDS011;727;48.892;9.544;2022-10-31T01:32:00;8.00;;;6.07;;
1467;SDS011;727;48.892;9.544;2022-10-31T01:34:27;7.35;;;5.97;;
1467;SDS011;727;48.892;9.544;2022-10-31T01:36:54;10.68;;;5.38;;
1467;SDS011;727;48.892;9.544;2022-10-31T01:39:20;14.55;;;6.63;;
1467;SDS011;727;48.892;9.544;2022-10-31T01:41:48;6.50;;;5.57;;
1467;SDS011;727;48.892;9.544;2022-10-31T01:47:17;8.07;;;6.00;;
1467;SDS011;727;48.892;9.544;2022-10-31T01:49:48;9.13;;;7.10;;
1467;SDS011;727;48.892;9.544;2022-10-31T01:52:20;8.63;;;6.72;;
1467;SDS011;727;48.892;9.544;2022-10-31T01:54:51;9.57;;;6.82;;
1467;SDS011;727;48.892;9.544;2022-10-31T01:57:21;15.35;;;5.47;;
1467;SDS011;727;48.892;9.544;2022-10-31T01:59:51;9.60;;;6.13;;
1467;SDS011;727;48.892;9.544;2022-10-31T02:02:23;10.07;;;6.35;;
1467;SDS011;727;48.892;9.544;2022-10-31T02:04:51;8.35;;;4.82;;
1467;SDS011;727;48.892;9.544;2022-10-31T02:07:20;5.25;;;4.75;;
1467;SDS011;727;48.892;9.544;2022-10-31T02:09:51;6.93;;;4.90;;
1467;SDS011;727;48.892;9.544;2022-10-31T02:12:19;7.28;;;5.55;;
1467;SDS011;727;48.892;9.544;2022-10-31T02:14:47;4.93;;;4.05;;
1467;SDS011;727;48.892;9.544;2022-10-31T02:17:15;6.57;;;5.35;;
1467;SDS011;727;48.892;9.544;2022-10-31T02:19:45;9.73;;;5.38;;
1467;SDS011;727;48.892;9.544;2022-10-31T02:22:19;8.40;;;4.68;;
1467;SDS011;727;48.892;9.544;2022-10-31T02:24:57;10.38;;;4.93;;
1467;SDS011;727;48.892;9.544;2022-10-31T02:27:48;5.68;;;4.70;;
1467;SDS011;727;48.892;9.544;2022-10-31T02:30:32;5.40;;;4.40;;
1467;SDS011;727;48.892;9.544;2022-10-31T02:33:14;4.70;;;4.07;;
1467;SDS011;727;48.892;9.544;2022-10-31T02:35:50;4.38;;;3.95;;
1467;SDS011;727;48.892;9.544;2022-10-31T02:38:26;6.65;;;4.65;;
1467;SDS011;727;48.892;9.544;2022-10-31T02:41:03;7.15;;;4.65;;
1467;SDS011;727;48.892;9.544;2022-10-31T02:43:35;5.85;;;4.72;;
1467;SDS011;727;48.892;9.544;2022-10-31T02:46:07;5.85;;;3.78;;
1467;SDS011;727;48.892;9.544;2022-10-31T02:48:41;5.00;;;4.43;;
1467;SDS011;727;48.892;9.544;2022-10-31T02:51:10;5.55;;;4.15;;
1467;SDS011;727;48.892;9.544;2022-10-31T02:53:38;4.50;;;4.00;;
1467;SDS011;727;48.892;9.544;2022-10-31T02:56:06;7.80;;;5.82;;
1467;SDS011;727;48.892;9.544;2022-10-31T02:58:38;6.32;;;5.57;;
1467;SDS011;727;48.892;9.544;2022-10-31T03:04:13;7.63;;;5.35;;
1467;SDS011;727;48.892;9.544;2022-10-31T03:07:03;8.02;;;5.28;;
1467;SDS011;727;48.892;9.544;2022-10-31T03:09:38;7.45;;;5.78;;
1467;SDS011;727;48.892;9.544;2022-10-31T03:12:13;8.00;;;5.82;;
1467;SDS011;727;48.892;9.544;2022-10-31T03:14:45;6.15;;;5.00;;
1467;SDS011;727;48.892;9.544;2022-10-31T03:17:18;6.10;;;4.85;;
1467;SDS011;727;48.892;9.544;2022-10-31T03:19:53;8.80;;;5.20;;
1467;SDS011;727;48.892;9.544;2022-10-31T03:22:26;6.97;;;4.75;;
1467;SDS011;727;48.892;9.544;2022-10-31T03:24:55;4.78;;;4.13;;
1467;SDS011;727;48.892;9.544;2022-10-31T03:27:24;4.63;;;4.22;;
1467;SDS011;727;48.892;9.544;2022-10-31T03:29:53;5.82;;;4.60;;
1467;SDS011;727;48.892;9.544;2022-10-31T03:32:22;6.25;;;4.88;;
1467;SDS011;727;48.892;9.544;2022-10-31T03:34:53;4.88;;;4.38;;
1467;SDS011;727;48.892;9.544;2022-10-31T03:37:22;6.15;;;5.28;;
1467;SDS011;727;48.892;9.544;2022-10-31T03:39:51;5.05;;;4.50;;
1467;SDS011;727;48.892;9.544;2022-10-31T03:42:21;9.40;;;4.97;;
1467;SDS011;727;48.892;9.544;2022-10-31T03:44:51;5.22;;;4.72;;
1467;SDS011;727;48.892;9.544;2022-10-31T03:47:22;5.65;;;4.18;;
1467;SDS011;727;48.892;9.544;2022-10-31T03:49:49;5.03;;;4.63;;
1467;SDS011;727;48.892;9.544;2022-10-31T03:52:19;19.80;;;7.18;;
1467;SDS011;727;48.892;9.544;2022-10-31T03:54:52;11.80;;;5.18;;
1467;SDS011;727;48.892;9.544;2022-10-31T03:57:24;7.15;;;5.93;;
1467;SDS011;727;48.892;9.544;2022-10-31T03:59:54;5.15;;;4.72;;
1467;SDS011;727;48.892;9.544;2022-10-31T04:02:26;6.38;;;4.40;;
1467;SDS011;727;48.892;9.544;2022-10-31T04:04:56;6.22;;;5.18;;
1467;SDS011;727;48.892;9.544;2022-10-31T04:07:26;8.48;;;4.60;;
1467;SDS011;727;48.892;9.544;2022-10-31T04:09:56;6.35;;;4.30;;
1467;SDS011;727;48.892;9.544;2022-10-31T04:12:26;7.88;;;4.82;;
1467;SDS011;727;48.892;9.544;2022-10-31T04:14:57;10.63;;;5.85;;
1467;SDS011;727;48.892;9.544;2022-10-31T04:17:25;8.45;;;5.90;;
1467;SDS011;727;48.892;9.544;2022-10-31T04:19:55;5.05;;;4.55;;
1467;SDS011;727;48.892;9.544;2022-10-31T04:22:26;6.20;;;5.43;;
1467;SDS011;727;48.892;9.544;2022-10-31T04:24:53;6.38;;;4.38;;
1467;SDS011;727;48.892;9.544;2022-10-31T04:27:19;11.45;;;5.20;;
1467;SDS011;727;48.892;9.544;2022-10-31T04:29:46;8.10;;;4.78;;
1467;SDS011;727;48.892;9.544;2022-10-31T04:32:13;7.82;;;5.13;;
1467;SDS011;727;48.892;9.544;2022-10-31T04:34:40;5.97;;;5.40;;
1467;SDS011;727;48.892;9.544;2022-10-31T04:37:06;8.13;;;4.88;;
1467;SDS011;727;48.892;9.544;2022-10-31T04:39:34;6.03;;;4.80;;
1467;SDS011;727;48.892;9.544;2022-10-31T04:42:01;7.00;;;4.30;;
1467;SDS011;727;48.892;9.544;2022-10-31T04:44:28;7.22;;;4.30;;
1467;SDS011;727;48.892;9.544;2022-10-31T04:46:54;5.68;;;4.28;;
1467;SDS011;727;48.892;9.544;2022-10-31T04:49:21;5.07;;;4.57;;
1467;SDS011;727;48.892;9.544;2022-10-31T04:51:48;5.75;;;3.97;;
1467;SDS011;727;48.892;9.544;2022-10-31T04:54:15;4.90;;;4.38;;
1467;SDS011;727;48.892;9.544;2022-10-31T04:56:43;7.05;;;5.28;;
1467;SDS011;727;48.892;9.544;2022-10-31T04:59:10;4.78;;;4.30;;
1467;SDS011;727;48.892;9.544;2022-10-31T05:01:36;10.35;;;5.80;;
1467;SDS011;727;48.892;9.544;2022-10-31T05:04:03;6.13;;;5.05;;
1467;SDS011;727;48.892;9.544;2022-10-31T05:06:30;9.98;;;5.88;;
1467;SDS011;727;48.892;9.544;2022-10-31T05:08:56;5.18;;;4.65;;
1467;SDS011;727;48.892;9.544;2022-10-31T05:11:23;6.35;;;5.22;;
1467;SDS011;727;48.892;9.544;2022-10-31T05:13:51;4.57;;;4.03;;
1467;SDS011;727;48.892;9.544;2022-10-31T05:16:18;6.88;;;4.45;;
1467;SDS011;727;48.892;9.544;2022-10-31T05:18:45;5.32;;;4.75;;
1467;SDS011;727;48.892;9.544;2022-10-31T05:21:11;6.05;;;5.47;;
1467;SDS011;727;48.892;9.544;2022-10-31T05:23:38;6.85;;;4.57;;
1467;SDS011;727;48.892;9.544;2022-10-31T05:26:05;6.63;;;6.03;;
1467;SDS011;727;48.892;9.544;2022-10-31T05:28:31;5.03;;;4.63;;
1467;SDS011;727;48.892;9.544;2022-10-31T05:30:59;9.68;;;5.68;;
1467;SDS011;727;48.892;9.544;2022-10-31T05:33:26;6.45;;;4.38;;
1467;SDS011;727;48.892;9.544;2022-10-31T05:35:53;5.25;;;4.75;;
1467;SDS011;727;48.892;9.544;2022-10-31T05:38:19;5.32;;;4.75;;
1467;SDS011;727;48.892;9.544;2022-10-31T05:40:46;8.73;;;4.95;;
1467;SDS011;727;48.892;9.544;2022-10-31T05:43:13;4.78;;;4.40;;
1467;SDS011;727;48.892;9.544;2022-10-31T05:45:39;5.40;;;4.72;;
1467;SDS011;727;48.892;9.544;2022-10-31T05:48:08;6.68;;;6.18;;
1467;SDS011;727;48.892;9.544;2022-10-31T05:50:35;7.72;;;5.82;;
1467;SDS011;727;48.892;9.544;2022-10-31T05:53:02;10.20;;;6.60;;
1467;SDS011;727;48.892;9.544;2022-10-31T05:55:30;6.60;;;5.90;;
1467;SDS011;727;48.892;9.544;2022-10-31T05:57:57;5.57;;;5.07;;
1467;SDS011;727;48.892;9.544;2022-10-31T06:00:25;6.40;;;4.90;;
1467;SDS011;727;48.892;9.544;2022-10-31T06:02:57;5.57;;;5.05;;
1467;SDS011;727;48.892;9.544;2022-10-31T06:05:26;7.93;;;6.20;;
1467;SDS011;727;48.892;9.544;2022-10-31T06:07:52;8.27;;;7.38;;
1467;SDS011;727;48.892;9.544;2022-10-31T06:10:19;7.22;;;6.03;;
1467;SDS011;727;48.892;9.544;2022-10-31T06:12:46;9.05;;;5.05;;
1467;SDS011;727;48.892;9.544;2022-10-31T06:15:14;10.63;;;5.43;;
1467;SDS011;727;48.892;9.544;2022-10-31T06:17:41;11.15;;;6.07;;
1467;SDS011;727;48.892;9.544;2022-10-31T06:20:08;8.25;;;6.70;;
1467;SDS011;727;48.892;9.544;2022-10-31T06:22:37;13.75;;;10.30;;
1467;SDS011;727;48.892;9.544;2022-10-31T06:25:04;38.55;;;22.27;;
1467;SDS011;727;48.892;9.544;2022-10-31T06:27:31;50.20;;;31.45;;
1467;SDS011;727;48.892;9.544;2022-10-31T06:29:57;38.88;;;25.65;;
1467;SDS011;727;48.892;9.544;2022-10-31T06:32:24;22.83;;;15.32;;
1467;SDS011;727;48.892;9.544;2022-10-31T06:34:51;23.42;;;14.70;;
1467;SDS011;727;48.892;9.544;2022-10-31T06:37:17;19.80;;;15.02;;
1467;SDS011;727;48.892;9.544;2022-10-31T06:39:45;22.77;;;11.38;;
1467;SDS011;727;48.892;9.544;2022-10-31T06:42:12;16.92;;;10.50;;
1467;SDS011;727;48.892;9.544;2022-10-31T06:44:41;20.25;;;9.82;;
1467;SDS011;727;48.892;9.544;2022-10-31T06:47:08;17.23;;;9.85;;
1467;SDS011;727;48.892;9.544;2022-10-31T06:49:36;12.27;;;7.07;;
1467;SDS011;727;48.892;9.544;2022-10-31T06:52:02;8.45;;;6.88;;
1467;SDS011;727;48.892;9.544;2022-10-31T06:54:30;11.82;;;6.20;;
1467;SDS011;727;48.892;9.544;2022-10-31T06:56:58;7.30;;;5.50;;
1467;SDS011;727;48.892;9.544;2022-10-31T06:59:25;8.90;;;7.35;;
1467;SDS011;727;48.892;9.544;2022-10-31T07:01:52;9.73;;;6.03;;
1467;SDS011;727;48.892;9.544;2022-10-31T07:04:18;6.95;;;6.20;;
1467;SDS011;727;48.892;9.544;2022-10-31T07:06:45;9.23;;;6.00;;
1467;SDS011;727;48.892;9.544;2022-10-31T07:09:12;12.90;;;8.30;;
1467;SDS011;727;48.892;9.544;2022-10-31T07:11:39;14.90;;;8.10;;
1467;SDS011;727;48.892;9.544;2022-10-31T07:14:07;10.90;;;8.35;;
1467;SDS011;727;48.892;9.544;2022-10-31T07:16:33;14.57;;;7.80;;
1467;SDS011;727;48.892;9.544;2022-10-31T07:19:00;15.00;;;8.85;;
1467;SDS011;727;48.892;9.544;2022-10-31T07:21:27;10.85;;;8.40;;
1467;SDS011;727;48.892;9.544;2022-10-31T07:23:53;9.75;;;6.85;;
1467;SDS011;727;48.892;9.544;2022-10-31T07:26:20;16.15;;;7.93;;
1467;SDS011;727;48.892;9.544;2022-10-31T07:28:47;13.73;;;7.03;;
1467;SDS011;727;48.892;9.544;2022-10-31T07:31:15;9.37;;;7.57;;
1467;SDS011;727;48.892;9.544;2022-10-31T07:33:42;8.27;;;7.13;;
1467;SDS011;727;48.892;9.544;2022-10-31T07:36:09;6.03;;;5.20;;
1467;SDS011;727;48.892;9.544;2022-10-31T07:38:36;5.73;;;4.60;;
1467;SDS011;727;48.892;9.544;2022-10-31T07:41:02;5.87;;;4.67;;
1467;SDS011;727;48.892;9.544;2022-10-31T07:43:29;7.00;;;4.20;;
1467;SDS011;727;48.892;9.544;2022-10-31T07:45:56;12.00;;;5.30;;
1467;SDS011;727;48.892;9.544;2022-10-31T07:48:24;8.10;;;5.33;;
1467;SDS011;727;48.892;9.544;2022-10-31T07:50:51;13.97;;;6.37;;
1467;SDS011;727;48.892;9.544;2022-10-31T07:53:19;7.50;;;4.77;;
1467;SDS011;727;48.892;9.544;2022-10-31T07:55:46;6.17;;;5.40;;
1467;SDS011;727;48.892;9.544;2022-10-31T07:58:13;10.57;;;4.87;;
1467;SDS011;727;48.892;9.544;2022-10-31T08:00:42;6.77;;;5.40;;
1467;SDS011;727;48.892;9.544;2022-10-31T08:03:10;6.33;;;5.60;;
1467;SDS011;727;48.892;9.544;2022-10-31T08:05:39;5.77;;;5.17;;
1467;SDS011;727;48.892;9.544;2022-10-31T08:08:07;6.60;;;5.33;;
1467;SDS011;727;48.892;9.544;2022-10-31T08:10:34;20.87;;;7.47;;
1467;SDS011;727;48.892;9.544;2022-10-31T08:13:02;6.80;;;5.03;;
1467;SDS011;727;48.892;9.544;2022-10-31T08:15:30;10.43;;;6.43;;
1467;SDS011;727;48.892;9.544;2022-10-31T08:17:59;8.67;;;5.80;;
1467;SDS011;727;48.892;9.544;2022-10-31T08:20:27;8.00;;;7.20;;
1467;SDS011;727;48.892;9.544;2022-10-31T08:22:55;8.90;;;6.07;;
1467;SDS011;727;48.892;9.544;2022-10-31T08:25:23;6.60;;;5.20;;
1467;SDS011;727;48.892;9.544;2022-10-31T08:27:50;6.57;;;5.80;;
1467;SDS011;727;48.892;9.544;2022-10-31T08:30:18;5.63;;;5.00;;
1467;SDS011;727;48.892;9.544;2022-10-31T08:32:45;10.00;;;5.67;;
1467;SDS011;727;48.892;9.544;2022-10-31T08:35:12;5.83;;;5.00;;
1467;SDS011;727;48.892;9.544;2022-10-31T08:37:38;10.00;;;4.90;;
1467;SDS011;727;48.892;9.544;2022-10-31T08:40:07;8.93;;;5.87;;
1467;SDS011;727;48.892;9.544;2022-10-31T08:42:35;7.03;;;5.37;;
1467;SDS011;727;48.892;9.544;2022-10-31T08:45:02;7.90;;;5.03;;
1467;SDS011;727;48.892;9.544;2022-10-31T08:47:30;7.80;;;6.63;;
1467;SDS011;727;48.892;9.544;2022-10-31T08:49:56;5.93;;;5.20;;
1467;SDS011;727;48.892;9.544;2022-10-31T08:52:23;8.60;;;4.90;;
1467;SDS011;727;48.892;9.544;2022-10-31T08:54:51;11.63;;;6.13;;
1467;SDS011;727;48.892;9.544;2022-10-31T08:57:19;7.47;;;5.60;;
1467;SDS011;727;48.892;9.544;2022-10-31T08:59:46;10.50;;;4.73;;
1467;SDS011;727;48.892;9.544;2022-10-31T09:02:14;6.90;;;5.40;;
1467;SDS011;727;48.892;9.544;2022-10-31T09:04:41;6.93;;;6.10;;
1467;SDS011;727;48.892;9.544;2022-10-31T09:07:08;8.17;;;5.67;;
1467;SDS011;727;48.892;9.544;2022-10-31T09:09:36;13.93;;;6.00;;
1467;SDS011;727;48.892;9.544;2022-10-31T09:12:07;22.23;;;8.00;;
1467;SDS011;727;48.892;9.544;2022-10-31T09:14:35;11.73;;;6.30;;
1467;SDS011;727;48.892;9.544;2022-10-31T09:17:02;10.50;;;5.60;;
1467;SDS011;727;48.892;9.544;2022-10-31T09:19:29;9.20;;;6.23;;
1467;SDS011;727;48.892;9.544;2022-10-31T09:21:56;14.20;;;5.70;;
1467;SDS011;727;48.892;9.544;2022-10-31T09:24:22;9.93;;;6.20;;
1467;SDS011;727;48.892;9.544;2022-10-31T09:26:49;7.83;;;5.80;;
1467;SDS011;727;48.892;9.544;2022-10-31T09:29:16;7.43;;;5.60;;
1467;SDS011;727;48.892;9.544;2022-10-31T09:31:44;7.93;;;5.97;;
1467;SDS011;727;48.892;9.544;2022-10-31T09:34:11;6.57;;;4.93;;
1467;SDS011;727;48.892;9.544;2022-10-31T09:36:38;7.37;;;4.60;;
1467;SDS011;727;48.892;9.544;2022-10-31T09:39:05;6.33;;;5.10;;
1467;SDS011;727;48.892;9.544;2022-10-31T09:44:32;8.13;;;5.03;;
1467;SDS011;727;48.892;9.544;2022-10-31T09:47:10;12.03;;;5.93;;
1467;SDS011;727;48.892;9.544;2022-10-31T09:49:53;11.70;;;5.70;;
1467;SDS011;727;48.892;9.544;2022-10-31T09:52:29;7.17;;;5.40;;
1467;SDS011;727;48.892;9.544;2022-10-31T09:54:58;9.90;;;4.50;;
1467;SDS011;727;48.892;9.544;2022-10-31T09:57:29;9.13;;;4.93;;
1467;SDS011;727;48.892;9.544;2022-10-31T09:59:58;7.27;;;5.70;;
1467;SDS011;727;48.892;9.544;2022-10-31T10:02:29;8.90;;;5.97;;
1467;SDS011;727;48.892;9.544;2022-10-31T10:05:02;6.40;;;5.80;;
1467;SDS011;727;48.892;9.544;2022-10-31T10:07:33;10.20;;;5.60;;
1467;SDS011;727;48.892;9.544;2022-10-31T10:10:12;7.13;;;5.60;;
1467;SDS011;727;48.892;9.544;2022-10-31T10:12:45;14.10;;;6.60;;
1467;SDS011;727;48.892;9.544;2022-10-31T10:15:31;6.43;;;5.20;;
1467;SDS011;727;48.892;9.544;2022-10-31T10:18:16;13.60;;;6.10;;
1467;SDS011;727;48.892;9.544;2022-10-31T10:20:55;6.13;;;5.50;;
1467;SDS011;727;48.892;9.544;2022-10-31T10:23:31;8.07;;;6.00;;
1467;SDS011;727;48.892;9.544;2022-10-31T10:26:05;10.23;;;5.53;;
1467;SDS011;727;48.892;9.544;2022-10-31T10:28:40;6.10;;;5.50;;
1467;SDS011;727;48.892;9.544;2022-10-31T10:31:11;6.93;;;6.23;;
1467;SDS011;727;48.892;9.544;2022-10-31T10:33:42;15.83;;;6.27;;
1467;SDS011;727;48.892;9.544;2022-10-31T10:36:18;10.13;;;5.40;;
1467;SDS011;727;48.892;9.544;2022-10-31T10:38:53;8.10;;;6.20;;
1467;SDS011;727;48.892;9.544;2022-10-31T10:41:24;13.20;;;6.60;;
1467;SDS011;727;48.892;9.544;2022-10-31T10:43:56;10.70;;;5.70;;
1467;SDS011;727;48.892;9.544;2022-10-31T10:46:23;6.13;;;5.10;;
1467;SDS011;727;48.892;9.544;2022-10-31T10:49:17;6.33;;;5.03;;
1467;SDS011;727;48.892;9.544;2022-10-31T10:51:46;12.00;;;6.23;;
1467;SDS011;727;48.892;9.544;2022-10-31T10:54:33;8.80;;;5.30;;
1467;SDS011;727;48.892;9.544;2022-10-31T10:57:11;16.10;;;6.23;;
1467;SDS011;727;48.892;9.544;2022-10-31T10:59:52;8.20;;;5.47;;
1467;SDS011;727;48.892;9.544;2022-10-31T11:02:19;9.13;;;6.33;;
1467;SDS011;727;48.892;9.544;2022-10-31T11:04:50;8.23;;;5.40;;
1467;SDS011;727;48.892;9.544;2022-10-31T11:07:18;7.90;;;4.70;;
1467;SDS011;727;48.892;9.544;2022-10-31T11:09:45;8.63;;;5.63;;
1467;SDS011;727;48.892;9.544;2022-10-31T11:12:16;12.20;;;5.97;;
1467;SDS011;727;48.892;9.544;2022-10-31T11:14:47;12.90;;;6.03;;
1467;SDS011;727;48.892;9.544;2022-10-31T11:17:19;11.20;;;5.60;;
1467;SDS011;727;48.892;9.544;2022-10-31T11:20:02;13.37;;;6.37;;
1467;SDS011;727;48.892;9.544;2022-10-31T11:22:30;8.53;;;5.57;;
1467;SDS011;727;48.892;9.544;2022-10-31T11:24:57;6.33;;;5.37;;
1467;SDS011;727;48.892;9.544;2022-10-31T11:27:24;9.30;;;6.17;;
1467;SDS011;727;48.892;9.544;2022-10-31T11:29:52;6.90;;;5.73;;
1467;SDS011;727;48.892;9.544;2022-10-31T11:32:29;13.80;;;5.90;;
1467;SDS011;727;48.892;9.544;2022-10-31T11:34:57;6.10;;;5.50;;
1467;SDS011;727;48.892;9.544;2022-10-31T11:37:29;13.00;;;6.73;;
1467;SDS011;727;48.892;9.544;2022-10-31T11:40:00;11.60;;;5.83;;
1467;SDS011;727;48.892;9.544;2022-10-31T11:42:34;9.07;;;5.97;;
1467;SDS011;727;48.892;9.544;2022-10-31T11:45:06;10.20;;;6.30;;
1467;SDS011;727;48.892;9.544;2022-10-31T11:47:41;9.90;;;5.47;;
1467;SDS011;727;48.892;9.544;2022-10-31T11:50:10;6.83;;;6.13;;
1467;SDS011;727;48.892;9.544;2022-10-31T11:52:46;7.80;;;5.37;;
1467;SDS011;727;48.892;9.544;2022-10-31T11:55:15;8.70;;;6.37;;
1467;SDS011;727;48.892;9.544;2022-10-31T11:57:44;8.87;;;5.57;;
1467;SDS011;727;48.892;9.544;2022-10-31T12:00:20;5.87;;;5.13;;
1467;SDS011;727;48.892;9.544;2022-10-31T12:02:48;7.80;;;6.50;;
1467;SDS011;727;48.892;9.544;2022-10-31T12:05:17;10.10;;;7.93;;
1467;SDS011;727;48.892;9.544;2022-10-31T12:07:47;11.03;;;6.97;;
1467;SDS011;727;48.892;9.544;2022-10-31T12:10:15;12.40;;;6.80;;
1467;SDS011;727;48.892;9.544;2022-10-31T12:12:48;8.97;;;7.17;;
1467;SDS011;727;48.892;9.544;2022-10-31T12:15:31;11.40;;;6.47;;
1467;SDS011;727;48.892;9.544;2022-10-31T12:18:03;8.60;;;6.30;;
1467;SDS011;727;48.892;9.544;2022-10-31T12:20:52;14.53;;;7.50;;
1467;SDS011;727;48.892;9.544;2022-10-31T12:23:30;9.90;;;6.77;;
1467;SDS011;727;48.892;9.544;2022-10-31T12:26:08;9.13;;;5.70;;
1467;SDS011;727;48.892;9.544;2022-10-31T12:28:49;12.43;;;6.47;;
1467;SDS011;727;48.892;9.544;2022-10-31T12:31:43;11.53;;;6.20;;
1467;SDS011;727;48.892;9.544;2022-10-31T12:34:24;10.70;;;6.53;;
1467;SDS011;727;48.892;9.544;2022-10-31T12:37:07;8.97;;;6.40;;
1467;SDS011;727;48.892;9.544;2022-10-31T12:39:42;8.33;;;5.87;;
1467;SDS011;727;48.892;9.544;2022-10-31T12:42:19;8.23;;;6.57;;
1467;SDS011;727;48.892;9.544;2022-10-31T12:44:58;8.10;;;6.30;;
1467;SDS011;727;48.892;9.544;2022-10-31T12:47:40;6.53;;;5.67;;
1467;SDS011;727;48.892;9.544;2022-10-31T12:50:19;11.70;;;6.77;;
1467;SDS011;727;48.892;9.544;2022-10-31T12:53:00;7.37;;;5.80;;
1467;SDS011;727;48.892;9.544;2022-10-31T12:55:44;14.93;;;6.97;;
1467;SDS011;727;48.892;9.544;2022-10-31T12:58:20;10.77;;;6.20;;
1467;SDS011;727;48.892;9.544;2022-10-31T13:00:51;10.43;;;5.43;;
1467;SDS011;727;48.892;9.544;2022-10-31T13:03:28;7.27;;;5.80;;
1467;SDS011;727;48.892;9.544;2022-10-31T13:06:02;14.77;;;7.17;;
1467;SDS011;727;48.892;9.544;2022-10-31T13:08:34;7.30;;;6.10;;
1467;SDS011;727;48.892;9.544;2022-10-31T13:11:08;13.90;;;6.40;;
1467;SDS011;727;48.892;9.544;2022-10-31T13:13:39;7.50;;;5.93;;
1467;SDS011;727;48.892;9.544;2022-10-31T13:16:11;6.73;;;5.80;;
1467;SDS011;727;48.892;9.544;2022-10-31T13:18:42;14.80;;;6.90;;
1467;SDS011;727;48.892;9.544;2022-10-31T13:21:15;11.20;;;6.63;;
1467;SDS011;727;48.892;9.544;2022-10-31T13:23:45;8.10;;;6.70;;
1467;SDS011;727;48.892;9.544;2022-10-31T13:26:18;8.80;;;6.20;;
1467;SDS011;727;48.892;9.544;2022-10-31T13:28:52;8.73;;;6.07;;
1467;SDS011;727;48.892;9.544;2022-10-31T13:31:25;12.50;;;7.00;;
1467;SDS011;727;48.892;9.544;2022-10-31T13:33:53;9.20;;;6.43;;
1467;SDS011;727;48.892;9.544;2022-10-31T13:36:24;7.63;;;6.93;;
1467;SDS011;727;48.892;9.544;2022-10-31T13:38:59;10.87;;;6.70;;
1467;SDS011;727;48.892;9.544;2022-10-31T13:41:34;9.93;;;6.07;;
1467;SDS011;727;48.892;9.544;2022-10-31T13:44:11;10.33;;;7.30;;
1467;SDS011;727;48.892;9.544;2022-10-31T13:46:42;12.83;;;6.90;;
1467;SDS011;727;48.892;9.544;2022-10-31T13:49:26;11.80;;;7.93;;
1467;SDS011;727;48.892;9.544;2022-10-31T13:52:14;14.40;;;7.97;;
1467;SDS011;727;48.892;9.544;2022-10-31T13:54:43;12.57;;;7.60;;
1467;SDS011;727;48.892;9.544;2022-10-31T13:57:17;21.40;;;11.77;;
1467;SDS011;727;48.892;9.544;2022-10-31T13:59:47;13.97;;;10.90;;
1467;SDS011;727;48.892;9.544;2022-10-31T14:02:17;10.60;;;8.13;;
1467;SDS011;727;48.892;9.544;2022-10-31T14:04:49;13.43;;;8.07;;
1467;SDS011;727;48.892;9.544;2022-10-31T14:07:18;9.87;;;8.00;;
1467;SDS011;727;48.892;9.544;2022-10-31T14:09:52;10.50;;;8.03;;
1467;SDS011;727;48.892;9.544;2022-10-31T14:12:24;13.87;;;9.83;;
1467;SDS011;727;48.892;9.544;2022-10-31T14:14:55;12.60;;;9.30;;
1467;SDS011;727;48.892;9.544;2022-10-31T14:17:26;11.70;;;8.57;;
1467;SDS011;727;48.892;9.544;2022-10-31T14:20:19;9.07;;;7.00;;
1467;SDS011;727;48.892;9.544;2022-10-31T14:22:57;9.80;;;6.73;;
1467;SDS011;727;48.892;9.544;2022-10-31T14:25:30;9.53;;;7.47;;
1467;SDS011;727;48.892;9.544;2022-10-31T14:28:00;11.57;;;6.63;;
1467;SDS011;727;48.892;9.544;2022-10-31T14:30:29;10.83;;;7.37;;
1467;SDS011;727;48.892;9.544;2022-10-31T14:32:58;7.93;;;6.30;;
1467;SDS011;727;48.892;9.544;2022-10-31T14:35:28;8.23;;;7.33;;
1467;SDS011;727;48.892;9.544;2022-10-31T14:38:15;12.27;;;7.80;;
1467;SDS011;727;48.892;9.544;2022-10-31T14:41:16;11.60;;;7.73;;
1467;SDS011;727;48.892;9.544;2022-10-31T14:47:07;8.83;;;7.93;;
1467;SDS011;727;48.892;9.544;2022-10-31T14:49:48;11.60;;;8.43;;
1467;SDS011;727;48.892;9.544;2022-10-31T14:52:28;7.40;;;6.70;;
1467;SDS011;727;48.892;9.544;2022-10-31T14:54:56;9.73;;;6.90;;
1467;SDS011;727;48.892;9.544;2022-10-31T14:57:26;11.40;;;7.97;;
1467;SDS011;727;48.892;9.544;2022-10-31T14:59:59;7.30;;;6.57;;
1467;SDS011;727;48.892;9.544;2022-10-31T15:02:31;9.90;;;7.10;;
1467;SDS011;727;48.892;9.544;2022-10-31T15:05:01;9.00;;;7.63;;
1467;SDS011;727;48.892;9.544;2022-10-31T15:07:32;11.47;;;8.23;;
1467;SDS011;727;48.892;9.544;2022-10-31T15:10:00;11.60;;;7.53;;
1467;SDS011;727;48.892;9.544;2022-10-31T15:12:30;7.60;;;6.90;;
1467;SDS011;727;48.892;9.544;2022-10-31T15:15:09;8.83;;;7.47;;
1467;SDS011;727;48.892;9.544;2022-10-31T15:17:41;8.17;;;7.37;;
1467;SDS011;727;48.892;9.544;2022-10-31T15:20:10;11.50;;;8.60;;
1467;SDS011;727;48.892;9.544;2022-10-31T15:22:38;10.63;;;8.30;;
1467;SDS011;727;48.892;9.544;2022-10-31T15:25:05;12.60;;;8.63;;
1467;SDS011;727;48.892;9.544;2022-10-31T15:27:41;9.73;;;8.17;;
1467;SDS011;727;48.892;9.544;2022-10-31T15:30:16;9.23;;;7.47;;
1467;SDS011;727;48.892;9.544;2022-10-31T15:32:45;13.40;;;7.53;;
1467;SDS011;727;48.892;9.544;2022-10-31T15:35:19;10.60;;;7.80;;
1467;SDS011;727;48.892;9.544;2022-10-31T15:37:48;12.23;;;7.40;;
1467;SDS011;727;48.892;9.544;2022-10-31T15:40:15;15.13;;;8.57;;
1467;SDS011;727;48.892;9.544;2022-10-31T15:42:45;11.13;;;7.70;;
1467;SDS011;727;48.892;9.544;2022-10-31T15:45:20;8.80;;;7.90;;
1467;SDS011;727;48.892;9.544;2022-10-31T15:47:51;10.23;;;7.73;;
1467;SDS011;727;48.892;9.544;2022-10-31T15:50:21;8.60;;;7.80;;
1467;SDS011;727;48.892;9.544;2022-10-31T15:52:51;8.30;;;6.93;;
1467;SDS011;727;48.892;9.544;2022-10-31T15:55:19;10.10;;;7.57;;
1467;SDS011;727;48.892;9.544;2022-10-31T15:57:49;8.60;;;7.00;;